sensor_id;sensor_type;location;lat;lon;timestamp;P1;durP1;ratioP1;P2;durP2;ratioP2
51122;SDS011;37162;41.724;13.346;2023-04-29T00:00:03;1.35;;;1.23;;
51122;SDS011;37162;41.724;13.346;2023-04-29T00:02:30;1.20;;;1.10;;
51122;SDS011;37162;41.724;13.346;2023-04-29T00:04:56;1.30;;;1.20;;
51122;SDS011;37162;41.724;13.346;2023-04-29T00:07:22;1.42;;;1.23;;
51122;SDS011;37162;41.724;13.346;2023-04-29T00:09:47;1.10;;;1.00;;
51122;SDS011;37162;41.724;13.346;2023-04-29T00:12:13;1.33;;;1.10;;
51122;SDS011;37162;41.724;13.346;2023-04-29T00:14:39;2.42;;;1.17;;
51122;SDS011;37162;41.724;13.346;2023-04-29T00:17:05;1.10;;;1.00;;
51122;SDS011;37162;41.724;13.346;2023-04-29T00:19:30;1.67;;;1.30;;
51122;SDS011;37162;41.724;13.346;2023-04-29T00:21:56;1.75;;;1.23;;
51122;SDS011;37162;41.724;13.346;2023-04-29T00:24:21;1.33;;;1.20;;
51122;SDS011;37162;41.724;13.346;2023-04-29T00:26:47;1.15;;;1.00;;
51122;SDS011;37162;41.724;13.346;2023-04-29T00:29:12;1.80;;;1.20;;
51122;SDS011;37162;41.724;13.346;2023-04-29T00:31:38;1.20;;;1.10;;
51122;SDS011;37162;41.724;13.346;2023-04-29T00:34:03;1.80;;;1.20;;
51122;SDS011;37162;41.724;13.346;2023-04-29T00:36:29;1.02;;;1.00;;
51122;SDS011;37162;41.724;13.346;2023-04-29T00:38:56;2.10;;;1.00;;
51122;SDS011;37162;41.724;13.346;2023-04-29T00:41:22;1.65;;;1.02;;
51122;SDS011;37162;41.724;13.346;2023-04-29T00:43:48;2.90;;;1.25;;
51122;SDS011;37162;41.724;13.346;2023-04-29T00:46:13;1.23;;;1.00;;
51122;SDS011;37162;41.724;13.346;2023-04-29T00:48:39;2.05;;;1.20;;
51122;SDS011;37162;41.724;13.346;2023-04-29T00:51:05;1.38;;;1.00;;
51122;SDS011;37162;41.724;13.346;2023-04-29T00:53:32;1.73;;;1.30;;
51122;SDS011;37162;41.724;13.346;2023-04-29T00:55:59;1.63;;;1.20;;
51122;SDS011;37162;41.724;13.346;2023-04-29T00:58:26;1.15;;;1.05;;
51122;SDS011;37162;41.724;13.346;2023-04-29T01:00:58;1.13;;;0.98;;
51122;SDS011;37162;41.724;13.346;2023-04-29T01:03:25;1.20;;;1.10;;
51122;SDS011;37162;41.724;13.346;2023-04-29T01:05:54;1.25;;;0.95;;
51122;SDS011;37162;41.724;13.346;2023-04-29T01:11:29;1.55;;;1.10;;
51122;SDS011;37162;41.724;13.346;2023-04-29T01:14:04;2.95;;;1.02;;
51122;SDS011;37162;41.724;13.346;2023-04-29T01:18:59;1.02;;;0.95;;
51122;SDS011;37162;41.724;13.346;2023-04-29T01:21:31;2.85;;;0.93;;
51122;SDS011;37162;41.724;13.346;2023-04-29T01:23:56;1.70;;;1.02;;
51122;SDS011;37162;41.724;13.346;2023-04-29T01:26:22;1.10;;;1.00;;
51122;SDS011;37162;41.724;13.346;2023-04-29T01:37:05;0.93;;;0.82;;
51122;SDS011;37162;41.724;13.346;2023-04-29T01:42:40;1.42;;;1.05;;
51122;SDS011;37162;41.724;13.346;2023-04-29T01:45:10;1.75;;;1.00;;
51122;SDS011;37162;41.724;13.346;2023-04-29T01:47:39;1.20;;;1.10;;
51122;SDS011;37162;41.724;13.346;2023-04-29T01:50:06;1.73;;;1.00;;
51122;SDS011;37162;41.724;13.346;2023-04-29T01:52:31;3.45;;;1.20;;
51122;SDS011;37162;41.724;13.346;2023-04-29T01:54:57;1.23;;;1.00;;
51122;SDS011;37162;41.724;13.346;2023-04-29T01:57:22;1.27;;;1.10;;
51122;SDS011;37162;41.724;13.346;2023-04-29T01:59:47;1.80;;;1.10;;
51122;SDS011;37162;41.724;13.346;2023-04-29T02:02:13;1.17;;;1.08;;
51122;SDS011;37162;41.724;13.346;2023-04-29T02:04:45;1.45;;;1.35;;
51122;SDS011;37162;41.724;13.346;2023-04-29T02:07:10;1.55;;;1.10;;
51122;SDS011;37162;41.724;13.346;2023-04-29T02:09:35;2.05;;;1.08;;
51122;SDS011;37162;41.724;13.346;2023-04-29T02:12:01;3.30;;;1.30;;
51122;SDS011;37162;41.724;13.346;2023-04-29T02:14:28;1.55;;;1.33;;
51122;SDS011;37162;41.724;13.346;2023-04-29T02:16:54;1.50;;;1.20;;
51122;SDS011;37162;41.724;13.346;2023-04-29T02:19:19;2.03;;;1.08;;
51122;SDS011;37162;41.724;13.346;2023-04-29T02:21:45;1.17;;;1.08;;
51122;SDS011;37162;41.724;13.346;2023-04-29T02:24:10;1.45;;;1.30;;
51122;SDS011;37162;41.724;13.346;2023-04-29T02:26:36;1.20;;;0.90;;
51122;SDS011;37162;41.724;13.346;2023-04-29T02:29:02;4.20;;;1.05;;
51122;SDS011;37162;41.724;13.346;2023-04-29T02:31:27;1.40;;;1.30;;
51122;SDS011;37162;41.724;13.346;2023-04-29T02:33:53;1.38;;;1.00;;
51122;SDS011;37162;41.724;13.346;2023-04-29T02:36:19;1.55;;;1.10;;
51122;SDS011;37162;41.724;13.346;2023-04-29T02:38:45;1.15;;;1.05;;
51122;SDS011;37162;41.724;13.346;2023-04-29T02:41:14;1.05;;;0.93;;
51122;SDS011;37162;41.724;13.346;2023-04-29T02:43:43;2.13;;;1.15;;
51122;SDS011;37162;41.724;13.346;2023-04-29T02:46:09;1.40;;;1.20;;
51122;SDS011;37162;41.724;13.346;2023-04-29T02:48:34;1.40;;;1.17;;
51122;SDS011;37162;41.724;13.346;2023-04-29T02:51:00;1.20;;;1.10;;
51122;SDS011;37162;41.724;13.346;2023-04-29T02:53:26;2.63;;;1.00;;
51122;SDS011;37162;41.724;13.346;2023-04-29T02:55:51;1.33;;;0.90;;
51122;SDS011;37162;41.724;13.346;2023-04-29T02:58:17;1.40;;;1.30;;
51122;SDS011;37162;41.724;13.346;2023-04-29T03:00:42;1.27;;;0.85;;
51122;SDS011;37162;41.724;13.346;2023-04-29T03:03:08;1.88;;;1.20;;
51122;SDS011;37162;41.724;13.346;2023-04-29T03:05:34;1.60;;;1.13;;
51122;SDS011;37162;41.724;13.346;2023-04-29T03:07:59;1.75;;;1.25;;
51122;SDS011;37162;41.724;13.346;2023-04-29T03:10:25;1.05;;;0.98;;
51122;SDS011;37162;41.724;13.346;2023-04-29T03:12:51;0.85;;;0.85;;
51122;SDS011;37162;41.724;13.346;2023-04-29T03:15:16;1.10;;;0.90;;
51122;SDS011;37162;41.724;13.346;2023-04-29T03:17:42;2.05;;;1.30;;
51122;SDS011;37162;41.724;13.346;2023-04-29T03:20:09;1.30;;;1.20;;
51122;SDS011;37162;41.724;13.346;2023-04-29T03:22:35;3.17;;;1.00;;
51122;SDS011;37162;41.724;13.346;2023-04-29T03:25:01;1.35;;;0.93;;
51122;SDS011;37162;41.724;13.346;2023-04-29T03:27:26;1.40;;;1.00;;
51122;SDS011;37162;41.724;13.346;2023-04-29T03:29:52;2.83;;;1.25;;
51122;SDS011;37162;41.724;13.346;2023-04-29T03:32:17;1.30;;;1.13;;
51122;SDS011;37162;41.724;13.346;2023-04-29T03:34:42;1.33;;;1.00;;
51122;SDS011;37162;41.724;13.346;2023-04-29T03:37:08;1.77;;;1.10;;
51122;SDS011;37162;41.724;13.346;2023-04-29T03:39:33;1.02;;;0.93;;
51122;SDS011;37162;41.724;13.346;2023-04-29T03:41:59;1.65;;;1.42;;
51122;SDS011;37162;41.724;13.346;2023-04-29T03:44:25;1.73;;;1.10;;
51122;SDS011;37162;41.724;13.346;2023-04-29T03:46:51;1.85;;;1.23;;
51122;SDS011;37162;41.724;13.346;2023-04-29T03:49:16;1.48;;;1.10;;
51122;SDS011;37162;41.724;13.346;2023-04-29T03:51:42;1.25;;;1.15;;
51122;SDS011;37162;41.724;13.346;2023-04-29T03:54:09;1.85;;;1.00;;
51122;SDS011;37162;41.724;13.346;2023-04-29T03:56:35;1.63;;;1.15;;
51122;SDS011;37162;41.724;13.346;2023-04-29T03:59:01;1.25;;;0.93;;
51122;SDS011;37162;41.724;13.346;2023-04-29T04:01:26;2.30;;;1.60;;
51122;SDS011;37162;41.724;13.346;2023-04-29T04:03:52;0.93;;;0.90;;
51122;SDS011;37162;41.724;13.346;2023-04-29T04:06:17;1.15;;;1.05;;
51122;SDS011;37162;41.724;13.346;2023-04-29T04:08:42;1.52;;;1.38;;
51122;SDS011;37162;41.724;13.346;2023-04-29T04:11:08;1.58;;;1.35;;
51122;SDS011;37162;41.724;13.346;2023-04-29T04:13:34;1.05;;;0.70;;
51122;SDS011;37162;41.724;13.346;2023-04-29T04:16:00;1.23;;;1.00;;
51122;SDS011;37162;41.724;13.346;2023-04-29T04:18:25;0.80;;;0.80;;
51122;SDS011;37162;41.724;13.346;2023-04-29T04:20:51;1.30;;;1.10;;
51122;SDS011;37162;41.724;13.346;2023-04-29T04:23:16;2.10;;;1.10;;
51122;SDS011;37162;41.724;13.346;2023-04-29T04:25:45;1.33;;;1.08;;
51122;SDS011;37162;41.724;13.346;2023-04-29T04:28:11;1.55;;;1.13;;
51122;SDS011;37162;41.724;13.346;2023-04-29T04:30:37;0.93;;;0.93;;
51122;SDS011;37162;41.724;13.346;2023-04-29T04:33:02;1.23;;;1.10;;
51122;SDS011;37162;41.724;13.346;2023-04-29T04:35:28;0.90;;;0.80;;
51122;SDS011;37162;41.724;13.346;2023-04-29T04:37:53;1.15;;;1.02;;
51122;SDS011;37162;41.724;13.346;2023-04-29T04:40:19;1.13;;;1.00;;
51122;SDS011;37162;41.724;13.346;2023-04-29T04:42:44;1.83;;;1.10;;
51122;SDS011;37162;41.724;13.346;2023-04-29T04:45:10;3.92;;;1.52;;
51122;SDS011;37162;41.724;13.346;2023-04-29T04:47:36;3.22;;;2.20;;
51122;SDS011;37162;41.724;13.346;2023-04-29T04:50:02;26.23;;;3.47;;
51122;SDS011;37162;41.724;13.346;2023-04-29T04:52:28;9.23;;;1.90;;
51122;SDS011;37162;41.724;13.346;2023-04-29T04:54:53;10.77;;;2.08;;
51122;SDS011;37162;41.724;13.346;2023-04-29T04:57:19;11.85;;;3.25;;
51122;SDS011;37162;41.724;13.346;2023-04-29T04:59:44;7.22;;;2.05;;
51122;SDS011;37162;41.724;13.346;2023-04-29T05:02:10;17.52;;;2.88;;
51122;SDS011;37162;41.724;13.346;2023-04-29T05:04:35;7.82;;;2.38;;
51122;SDS011;37162;41.724;13.346;2023-04-29T05:07:01;10.40;;;1.73;;
51122;SDS011;37162;41.724;13.346;2023-04-29T05:09:26;4.55;;;2.17;;
51122;SDS011;37162;41.724;13.346;2023-04-29T05:11:52;5.57;;;1.80;;
51122;SDS011;37162;41.724;13.346;2023-04-29T05:14:18;5.13;;;2.58;;
51122;SDS011;37162;41.724;13.346;2023-04-29T05:16:43;3.15;;;1.52;;
51122;SDS011;37162;41.724;13.346;2023-04-29T05:19:10;6.70;;;1.90;;
51122;SDS011;37162;41.724;13.346;2023-04-29T05:21:36;5.93;;;1.95;;
51122;SDS011;37162;41.724;13.346;2023-04-29T05:24:02;8.98;;;1.70;;
51122;SDS011;37162;41.724;13.346;2023-04-29T05:26:27;4.22;;;2.50;;
51122;SDS011;37162;41.724;13.346;2023-04-29T05:28:53;3.15;;;1.83;;
51122;SDS011;37162;41.724;13.346;2023-04-29T05:31:19;3.08;;;1.65;;
51122;SDS011;37162;41.724;13.346;2023-04-29T05:33:45;12.50;;;2.40;;
51122;SDS011;37162;41.724;13.346;2023-04-29T05:36:11;12.63;;;5.43;;
51122;SDS011;37162;41.724;13.346;2023-04-29T05:38:36;14.15;;;4.50;;
51122;SDS011;37162;41.724;13.346;2023-04-29T05:41:02;19.95;;;4.28;;
51122;SDS011;37162;41.724;13.346;2023-04-29T05:43:28;23.15;;;4.32;;
51122;SDS011;37162;41.724;13.346;2023-04-29T05:45:53;18.50;;;4.70;;
51122;SDS011;37162;41.724;13.346;2023-04-29T05:48:19;11.85;;;3.97;;
51122;SDS011;37162;41.724;13.346;2023-04-29T05:50:45;18.38;;;3.53;;
51122;SDS011;37162;41.724;13.346;2023-04-29T05:53:12;23.95;;;4.65;;
51122;SDS011;37162;41.724;13.346;2023-04-29T05:55:38;25.23;;;5.00;;
51122;SDS011;37162;41.724;13.346;2023-04-29T05:58:03;9.98;;;4.07;;
51122;SDS011;37162;41.724;13.346;2023-04-29T06:00:29;12.77;;;4.43;;
51122;SDS011;37162;41.724;13.346;2023-04-29T06:02:55;15.80;;;4.13;;
51122;SDS011;37162;41.724;13.346;2023-04-29T06:05:21;9.68;;;3.30;;
51122;SDS011;37162;41.724;13.346;2023-04-29T06:09:31;15.93;;;3.35;;
51122;SDS011;37162;41.724;13.346;2023-04-29T06:11:57;6.40;;;3.20;;
51122;SDS011;37162;41.724;13.346;2023-04-29T06:14:22;10.88;;;3.15;;
51122;SDS011;37162;41.724;13.346;2023-04-29T06:16:48;13.20;;;3.90;;
51122;SDS011;37162;41.724;13.346;2023-04-29T06:19:13;6.10;;;3.05;;
51122;SDS011;37162;41.724;13.346;2023-04-29T06:21:39;4.72;;;2.42;;
51122;SDS011;37162;41.724;13.346;2023-04-29T06:24:04;7.07;;;3.03;;
51122;SDS011;37162;41.724;13.346;2023-04-29T06:26:30;7.72;;;3.70;;
51122;SDS011;37162;41.724;13.346;2023-04-29T06:28:55;4.85;;;2.95;;
51122;SDS011;37162;41.724;13.346;2023-04-29T06:31:21;8.20;;;3.10;;
51122;SDS011;37162;41.724;13.346;2023-04-29T06:33:47;7.60;;;2.67;;
51122;SDS011;37162;41.724;13.346;2023-04-29T06:36:12;6.40;;;3.13;;
51122;SDS011;37162;41.724;13.346;2023-04-29T06:38:37;4.20;;;2.50;;
51122;SDS011;37162;41.724;13.346;2023-04-29T06:41:03;4.45;;;2.90;;
51122;SDS011;37162;41.724;13.346;2023-04-29T06:43:29;7.93;;;3.45;;
51122;SDS011;37162;41.724;13.346;2023-04-29T06:45:54;6.10;;;2.78;;
51122;SDS011;37162;41.724;13.346;2023-04-29T06:48:21;5.93;;;3.38;;
51122;SDS011;37162;41.724;13.346;2023-04-29T06:50:53;4.70;;;2.58;;
51122;SDS011;37162;41.724;13.346;2023-04-29T06:53:20;6.88;;;3.38;;
51122;SDS011;37162;41.724;13.346;2023-04-29T06:55:46;7.95;;;2.30;;
51122;SDS011;37162;41.724;13.346;2023-04-29T06:58:12;4.80;;;2.38;;
51122;SDS011;37162;41.724;13.346;2023-04-29T07:00:39;7.38;;;3.10;;
51122;SDS011;37162;41.724;13.346;2023-04-29T07:03:04;6.43;;;3.10;;
51122;SDS011;37162;41.724;13.346;2023-04-29T07:05:30;6.05;;;2.50;;
51122;SDS011;37162;41.724;13.346;2023-04-29T07:07:55;7.50;;;2.40;;
51122;SDS011;37162;41.724;13.346;2023-04-29T07:10:21;9.63;;;3.28;;
51122;SDS011;37162;41.724;13.346;2023-04-29T07:12:47;5.80;;;2.38;;
51122;SDS011;37162;41.724;13.346;2023-04-29T07:15:12;4.95;;;2.33;;
51122;SDS011;37162;41.724;13.346;2023-04-29T07:17:38;6.75;;;2.47;;
51122;SDS011;37162;41.724;13.346;2023-04-29T07:20:03;3.53;;;2.08;;
51122;SDS011;37162;41.724;13.346;2023-04-29T07:22:29;5.28;;;2.60;;
51122;SDS011;37162;41.724;13.346;2023-04-29T07:24:55;4.68;;;2.58;;
51122;SDS011;37162;41.724;13.346;2023-04-29T07:27:21;5.82;;;2.45;;
51122;SDS011;37162;41.724;13.346;2023-04-29T07:29:47;5.60;;;2.50;;
51122;SDS011;37162;41.724;13.346;2023-04-29T07:32:12;2.83;;;2.25;;
51122;SDS011;37162;41.724;13.346;2023-04-29T07:34:38;3.30;;;2.03;;
51122;SDS011;37162;41.724;13.346;2023-04-29T07:37:04;3.85;;;2.35;;
51122;SDS011;37162;41.724;13.346;2023-04-29T07:39:29;5.00;;;2.40;;
51122;SDS011;37162;41.724;13.346;2023-04-29T07:41:55;4.32;;;2.35;;
51122;SDS011;37162;41.724;13.346;2023-04-29T07:44:21;6.38;;;2.42;;
51122;SDS011;37162;41.724;13.346;2023-04-29T07:46:46;5.45;;;2.80;;
51122;SDS011;37162;41.724;13.346;2023-04-29T07:49:12;3.85;;;2.55;;
51122;SDS011;37162;41.724;13.346;2023-04-29T07:51:40;6.55;;;2.78;;
51122;SDS011;37162;41.724;13.346;2023-04-29T07:54:06;6.57;;;3.08;;
51122;SDS011;37162;41.724;13.346;2023-04-29T07:56:32;5.53;;;2.88;;
51122;SDS011;37162;41.724;13.346;2023-04-29T07:58:58;4.03;;;2.40;;
51122;SDS011;37162;41.724;13.346;2023-04-29T08:01:25;5.93;;;2.45;;
51122;SDS011;37162;41.724;13.346;2023-04-29T08:03:50;3.70;;;2.67;;
51122;SDS011;37162;41.724;13.346;2023-04-29T08:06:16;3.70;;;2.65;;
51122;SDS011;37162;41.724;13.346;2023-04-29T08:08:44;23.63;;;3.00;;
51122;SDS011;37162;41.724;13.346;2023-04-29T08:11:19;4.32;;;2.53;;
51122;SDS011;37162;41.724;13.346;2023-04-29T08:13:45;4.10;;;2.38;;
51122;SDS011;37162;41.724;13.346;2023-04-29T08:16:12;5.40;;;3.20;;
51122;SDS011;37162;41.724;13.346;2023-04-29T08:18:38;6.47;;;3.30;;
51122;SDS011;37162;41.724;13.346;2023-04-29T08:21:04;6.28;;;2.40;;
51122;SDS011;37162;41.724;13.346;2023-04-29T08:23:29;4.28;;;2.17;;
51122;SDS011;37162;41.724;13.346;2023-04-29T08:25:56;4.40;;;2.30;;
51122;SDS011;37162;41.724;13.346;2023-04-29T08:28:21;3.55;;;2.20;;
51122;SDS011;37162;41.724;13.346;2023-04-29T08:30:47;5.75;;;2.55;;
51122;SDS011;37162;41.724;13.346;2023-04-29T08:33:12;4.38;;;2.33;;
51122;SDS011;37162;41.724;13.346;2023-04-29T08:35:38;3.90;;;2.10;;
51122;SDS011;37162;41.724;13.346;2023-04-29T08:38:05;4.20;;;2.40;;
51122;SDS011;37162;41.724;13.346;2023-04-29T08:40:49;5.05;;;2.53;;
51122;SDS011;37162;41.724;13.346;2023-04-29T08:43:14;4.15;;;2.63;;
51122;SDS011;37162;41.724;13.346;2023-04-29T08:45:40;4.85;;;2.40;;
51122;SDS011;37162;41.724;13.346;2023-04-29T08:48:07;4.93;;;2.45;;
51122;SDS011;37162;41.724;13.346;2023-04-29T08:50:40;3.10;;;2.47;;
51122;SDS011;37162;41.724;13.346;2023-04-29T08:53:08;3.88;;;2.38;;
51122;SDS011;37162;41.724;13.346;2023-04-29T08:55:35;2.90;;;2.10;;
51122;SDS011;37162;41.724;13.346;2023-04-29T09:00:33;4.00;;;2.10;;
51122;SDS011;37162;41.724;13.346;2023-04-29T09:02:59;2.83;;;2.00;;
51122;SDS011;37162;41.724;13.346;2023-04-29T09:05:29;2.90;;;2.03;;
51122;SDS011;37162;41.724;13.346;2023-04-29T09:07:55;3.38;;;2.00;;
51122;SDS011;37162;41.724;13.346;2023-04-29T09:10:23;4.78;;;2.33;;
51122;SDS011;37162;41.724;13.346;2023-04-29T09:12:50;3.05;;;1.88;;
51122;SDS011;37162;41.724;13.346;2023-04-29T09:15:15;4.43;;;2.28;;
51122;SDS011;37162;41.724;13.346;2023-04-29T09:17:42;4.55;;;2.30;;
51122;SDS011;37162;41.724;13.346;2023-04-29T09:22:47;2.28;;;1.95;;
51122;SDS011;37162;41.724;13.346;2023-04-29T09:25:14;2.35;;;1.80;;
51122;SDS011;37162;41.724;13.346;2023-04-29T09:27:40;4.50;;;2.45;;
51122;SDS011;37162;41.724;13.346;2023-04-29T09:30:06;3.88;;;2.60;;
51122;SDS011;37162;41.724;13.346;2023-04-29T09:32:32;3.50;;;2.50;;
51122;SDS011;37162;41.724;13.346;2023-04-29T09:34:58;3.05;;;1.90;;
51122;SDS011;37162;41.724;13.346;2023-04-29T09:37:24;3.47;;;1.90;;
51122;SDS011;37162;41.724;13.346;2023-04-29T09:39:51;2.55;;;2.00;;
51122;SDS011;37162;41.724;13.346;2023-04-29T09:42:17;3.75;;;1.73;;
51122;SDS011;37162;41.724;13.346;2023-04-29T09:44:42;2.45;;;1.90;;
51122;SDS011;37162;41.724;13.346;2023-04-29T09:47:09;2.72;;;1.60;;
51122;SDS011;37162;41.724;13.346;2023-04-29T09:49:36;3.97;;;1.95;;
51122;SDS011;37162;41.724;13.346;2023-04-29T09:52:09;2.50;;;1.83;;
51122;SDS011;37162;41.724;13.346;2023-04-29T09:54:37;2.78;;;1.70;;
51122;SDS011;37162;41.724;13.346;2023-04-29T09:57:05;3.72;;;1.95;;
51122;SDS011;37162;41.724;13.346;2023-04-29T09:59:32;3.88;;;2.10;;
51122;SDS011;37162;41.724;13.346;2023-04-29T10:02:00;2.13;;;1.90;;
51122;SDS011;37162;41.724;13.346;2023-04-29T10:04:27;3.17;;;2.08;;
51122;SDS011;37162;41.724;13.346;2023-04-29T10:06:56;3.15;;;2.00;;
51122;SDS011;37162;41.724;13.346;2023-04-29T10:09:24;2.60;;;1.60;;
51122;SDS011;37162;41.724;13.346;2023-04-29T10:11:51;4.15;;;2.03;;
51122;SDS011;37162;41.724;13.346;2023-04-29T10:14:18;1.55;;;1.45;;
51122;SDS011;37162;41.724;13.346;2023-04-29T10:16:50;2.97;;;1.92;;
51122;SDS011;37162;41.724;13.346;2023-04-29T10:19:24;2.63;;;1.88;;
51122;SDS011;37162;41.724;13.346;2023-04-29T10:21:56;2.90;;;1.63;;
51122;SDS011;37162;41.724;13.346;2023-04-29T10:24:24;3.08;;;2.03;;
51122;SDS011;37162;41.724;13.346;2023-04-29T10:26:51;3.33;;;2.00;;
51122;SDS011;37162;41.724;13.346;2023-04-29T10:29:21;2.17;;;1.50;;
51122;SDS011;37162;41.724;13.346;2023-04-29T10:31:47;1.80;;;1.40;;
51122;SDS011;37162;41.724;13.346;2023-04-29T10:34:15;1.98;;;1.48;;
51122;SDS011;37162;41.724;13.346;2023-04-29T10:36:42;2.63;;;1.88;;
51122;SDS011;37162;41.724;13.346;2023-04-29T10:39:12;2.50;;;1.75;;
51122;SDS011;37162;41.724;13.346;2023-04-29T10:41:46;2.45;;;1.70;;
51122;SDS011;37162;41.724;13.346;2023-04-29T10:44:12;2.38;;;1.60;;
51122;SDS011;37162;41.724;13.346;2023-04-29T10:46:38;1.80;;;1.45;;
51122;SDS011;37162;41.724;13.346;2023-04-29T10:49:04;2.25;;;1.55;;
51122;SDS011;37162;41.724;13.346;2023-04-29T10:56:36;3.60;;;1.63;;
51122;SDS011;37162;41.724;13.346;2023-04-29T10:59:03;3.20;;;1.48;;
51122;SDS011;37162;41.724;13.346;2023-04-29T11:01:48;2.60;;;1.73;;
51122;SDS011;37162;41.724;13.346;2023-04-29T11:04:15;2.47;;;1.70;;
51122;SDS011;37162;41.724;13.346;2023-04-29T11:06:51;2.08;;;1.70;;
51122;SDS011;37162;41.724;13.346;2023-04-29T11:09:28;1.80;;;1.55;;
51122;SDS011;37162;41.724;13.346;2023-04-29T11:11:58;2.45;;;1.38;;
51122;SDS011;37162;41.724;13.346;2023-04-29T11:14:36;2.25;;;1.48;;
51122;SDS011;37162;41.724;13.346;2023-04-29T11:17:10;1.88;;;1.60;;
51122;SDS011;37162;41.724;13.346;2023-04-29T11:19:41;1.75;;;1.30;;
51122;SDS011;37162;41.724;13.346;2023-04-29T11:22:11;2.05;;;1.52;;
51122;SDS011;37162;41.724;13.346;2023-04-29T11:27:20;1.73;;;1.52;;
51122;SDS011;37162;41.724;13.346;2023-04-29T11:29:49;2.08;;;1.58;;
51122;SDS011;37162;41.724;13.346;2023-04-29T11:32:22;2.47;;;1.40;;
51122;SDS011;37162;41.724;13.346;2023-04-29T11:37:38;2.65;;;1.58;;
51122;SDS011;37162;41.724;13.346;2023-04-29T11:40:05;8.57;;;1.63;;
51122;SDS011;37162;41.724;13.346;2023-04-29T11:42:35;3.70;;;1.42;;
51122;SDS011;37162;41.724;13.346;2023-04-29T11:45:04;2.22;;;1.30;;
51122;SDS011;37162;41.724;13.346;2023-04-29T11:47:31;1.88;;;1.30;;
51122;SDS011;37162;41.724;13.346;2023-04-29T11:50:03;1.55;;;1.15;;
51122;SDS011;37162;41.724;13.346;2023-04-29T11:52:30;2.30;;;1.30;;
51122;SDS011;37162;41.724;13.346;2023-04-29T11:54:57;1.60;;;1.40;;
51122;SDS011;37162;41.724;13.346;2023-04-29T11:57:24;1.30;;;1.20;;
51122;SDS011;37162;41.724;13.346;2023-04-29T11:59:50;1.88;;;1.40;;
51122;SDS011;37162;41.724;13.346;2023-04-29T12:02:20;2.53;;;1.35;;
51122;SDS011;37162;41.724;13.346;2023-04-29T12:04:46;1.90;;;1.40;;
51122;SDS011;37162;41.724;13.346;2023-04-29T12:07:14;2.42;;;1.52;;
51122;SDS011;37162;41.724;13.346;2023-04-29T12:09:43;2.38;;;1.15;;
51122;SDS011;37162;41.724;13.346;2023-04-29T12:12:10;1.95;;;1.30;;
51122;SDS011;37162;41.724;13.346;2023-04-29T12:14:36;1.50;;;1.40;;
51122;SDS011;37162;41.724;13.346;2023-04-29T12:17:02;1.52;;;1.10;;
51122;SDS011;37162;41.724;13.346;2023-04-29T12:19:29;1.65;;;1.35;;
51122;SDS011;37162;41.724;13.346;2023-04-29T12:21:58;3.13;;;1.30;;
51122;SDS011;37162;41.724;13.346;2023-04-29T12:24:25;3.45;;;1.60;;
51122;SDS011;37162;41.724;13.346;2023-04-29T12:26:50;2.72;;;1.38;;
51122;SDS011;37162;41.724;13.346;2023-04-29T12:29:20;1.25;;;1.00;;
51122;SDS011;37162;41.724;13.346;2023-04-29T12:31:47;1.85;;;1.27;;
51122;SDS011;37162;41.724;13.346;2023-04-29T12:34:13;2.90;;;1.42;;
51122;SDS011;37162;41.724;13.346;2023-04-29T12:36:42;1.85;;;1.23;;
51122;SDS011;37162;41.724;13.346;2023-04-29T12:39:09;3.65;;;1.08;;
51122;SDS011;37162;41.724;13.346;2023-04-29T12:41:35;3.95;;;1.40;;
51122;SDS011;37162;41.724;13.346;2023-04-29T12:44:02;1.27;;;1.17;;
51122;SDS011;37162;41.724;13.346;2023-04-29T12:46:38;1.40;;;1.30;;
51122;SDS011;37162;41.724;13.346;2023-04-29T12:49:07;1.92;;;1.20;;
51122;SDS011;37162;41.724;13.346;2023-04-29T12:51:33;1.58;;;1.10;;
51122;SDS011;37162;41.724;13.346;2023-04-29T12:54:03;3.53;;;1.45;;
51122;SDS011;37162;41.724;13.346;2023-04-29T12:56:30;1.88;;;1.25;;
51122;SDS011;37162;41.724;13.346;2023-04-29T12:59:03;1.23;;;1.13;;
51122;SDS011;37162;41.724;13.346;2023-04-29T13:01:32;2.67;;;1.50;;
51122;SDS011;37162;41.724;13.346;2023-04-29T13:03:58;2.08;;;1.20;;
51122;SDS011;37162;41.724;13.346;2023-04-29T13:06:23;1.33;;;0.98;;
51122;SDS011;37162;41.724;13.346;2023-04-29T13:08:49;1.63;;;1.20;;
51122;SDS011;37162;41.724;13.346;2023-04-29T13:11:15;1.60;;;1.20;;
51122;SDS011;37162;41.724;13.346;2023-04-29T13:13:41;1.05;;;0.98;;
51122;SDS011;37162;41.724;13.346;2023-04-29T13:16:07;2.88;;;1.23;;
51122;SDS011;37162;41.724;13.346;2023-04-29T13:18:33;1.88;;;1.17;;
51122;SDS011;37162;41.724;13.346;2023-04-29T13:20:59;2.47;;;1.52;;
51122;SDS011;37162;41.724;13.346;2023-04-29T13:23:25;1.88;;;1.00;;
51122;SDS011;37162;41.724;13.346;2023-04-29T13:25:50;3.42;;;1.65;;
51122;SDS011;37162;41.724;13.346;2023-04-29T13:28:16;7.43;;;1.95;;
51122;SDS011;37162;41.724;13.346;2023-04-29T13:30:41;9.32;;;1.38;;
51122;SDS011;37162;41.724;13.346;2023-04-29T13:33:07;2.55;;;1.08;;
51122;SDS011;37162;41.724;13.346;2023-04-29T13:35:33;12.10;;;1.75;;
51122;SDS011;37162;41.724;13.346;2023-04-29T13:38:00;14.43;;;1.60;;
51122;SDS011;37162;41.724;13.346;2023-04-29T13:40:26;9.15;;;1.67;;
51122;SDS011;37162;41.724;13.346;2023-04-29T13:42:52;4.68;;;1.88;;
51122;SDS011;37162;41.724;13.346;2023-04-29T13:45:17;6.75;;;1.63;;
51122;SDS011;37162;41.724;13.346;2023-04-29T13:47:42;4.65;;;1.30;;
51122;SDS011;37162;41.724;13.346;2023-04-29T13:50:08;11.30;;;1.70;;
51122;SDS011;37162;41.724;13.346;2023-04-29T13:52:34;6.30;;;1.88;;
51122;SDS011;37162;41.724;13.346;2023-04-29T13:55:00;6.55;;;1.67;;
51122;SDS011;37162;41.724;13.346;2023-04-29T13:57:25;3.85;;;1.35;;
51122;SDS011;37162;41.724;13.346;2023-04-29T13:59:54;4.10;;;1.70;;
51122;SDS011;37162;41.724;13.346;2023-04-29T14:02:23;2.67;;;1.73;;
51122;SDS011;37162;41.724;13.346;2023-04-29T14:04:49;2.65;;;1.42;;
51122;SDS011;37162;41.724;13.346;2023-04-29T14:07:14;2.05;;;1.35;;
51122;SDS011;37162;41.724;13.346;2023-04-29T14:09:40;4.32;;;1.50;;
51122;SDS011;37162;41.724;13.346;2023-04-29T14:12:05;2.47;;;1.60;;
51122;SDS011;37162;41.724;13.346;2023-04-29T14:14:31;7.18;;;2.53;;
51122;SDS011;37162;41.724;13.346;2023-04-29T14:16:56;18.60;;;2.55;;
51122;SDS011;37162;41.724;13.346;2023-04-29T14:19:22;4.10;;;2.03;;
51122;SDS011;37162;41.724;13.346;2023-04-29T14:21:47;5.13;;;1.88;;
51122;SDS011;37162;41.724;13.346;2023-04-29T14:24:13;6.07;;;2.03;;
51122;SDS011;37162;41.724;13.346;2023-04-29T14:26:38;12.65;;;2.60;;
51122;SDS011;37162;41.724;13.346;2023-04-29T14:29:04;7.25;;;2.17;;
51122;SDS011;37162;41.724;13.346;2023-04-29T14:31:29;5.05;;;2.30;;
51122;SDS011;37162;41.724;13.346;2023-04-29T14:33:58;4.72;;;2.17;;
51122;SDS011;37162;41.724;13.346;2023-04-29T14:36:23;3.95;;;1.83;;
51122;SDS011;37162;41.724;13.346;2023-04-29T14:38:50;6.03;;;2.50;;
51122;SDS011;37162;41.724;13.346;2023-04-29T14:41:16;4.25;;;1.98;;
51122;SDS011;37162;41.724;13.346;2023-04-29T14:43:42;6.55;;;1.95;;
51122;SDS011;37162;41.724;13.346;2023-04-29T14:46:07;20.85;;;3.53;;
51122;SDS011;37162;41.724;13.346;2023-04-29T14:48:33;6.50;;;2.33;;
51122;SDS011;37162;41.724;13.346;2023-04-29T14:50:59;5.90;;;2.47;;
51122;SDS011;37162;41.724;13.346;2023-04-29T14:53:24;10.02;;;3.40;;
51122;SDS011;37162;41.724;13.346;2023-04-29T14:55:50;10.07;;;2.50;;
51122;SDS011;37162;41.724;13.346;2023-04-29T14:58:16;12.77;;;2.60;;
51122;SDS011;37162;41.724;13.346;2023-04-29T15:00:41;18.15;;;2.97;;
51122;SDS011;37162;41.724;13.346;2023-04-29T15:03:07;8.40;;;2.47;;